Ganasa — EA8999 — position and weather

sailwx.info

Track history (hours):
 
Tides and Currents Weather Stations Pressure Air Temp Water Temp Dewpoint Dewpoint Depression Visibility Wind Speed Wind Dir Waves Ship Positions

Ganasa

Last reported at 2017-Nov-17 14:29 UTC. Time now 2017-Nov-18 21:58 UTC.
Position N 38°55' E 001°26'.

Length 20 m.

Type: Fishing. MMSI: 224071880.

Date/timePositionNaut miles runAvg speedWind from/ knotsBaromVisibWave heightAir tempDewpointWater temp
2017-Nov-17 14:29N 38°55' E 001°26'0 0.0
2017-Nov-17 13:57N 38°55' E 001°26'0 0.0
2017-Nov-17 13:26N 38°55' E 001°26'2 4.2
2017-Nov-17 13:00N 38°53' E 001°28'7 1.9
2017-Nov-17 09:23N 38°54' E 001°37'1 2.2
2017-Nov-17 08:55N 38°54' E 001°38'1 2.1
2017-Nov-17 08:30N 38°55' E 001°38'1 2.4
2017-Nov-17 08:00N 38°56' E 001°39'1 2.2
2017-Nov-17 07:30N 38°57' E 001°39'2 4.6
2017-Nov-17 07:00N 38°59' E 001°38'1 1.2
2017-Nov-17 06:30N 38°60' E 001°38'1 2.2
2017-Nov-17 06:00N 38°59' E 001°38'1 2.3
2017-Nov-17 05:30N 38°58' E 001°38'1 2.3
2017-Nov-17 05:00N 38°57' E 001°38'1 2.3
2017-Nov-17 04:30N 38°56' E 001°38'3 6.0
2017-Nov-17 04:00N 38°54' E 001°34'5 8.6
2017-Nov-17 03:28N 38°54' E 001°28'1 0.0
2017-Nov-16 13:04N 38°54' E 001°27'1 8.0
2017-Nov-16 13:00N 38°53' E 001°28'5 8.3
2017-Nov-16 12:22N 38°50' E 001°33'1 1.2
2017-Nov-16 11:34N 38°50' E 001°35'1 2.3
2017-Nov-16 11:18N 38°51' E 001°35'1 2.3
2017-Nov-16 10:59N 38°51' E 001°35'1 2.4
2017-Nov-16 10:30N 38°52' E 001°36'1 2.4
2017-Nov-16 10:00N 38°53' E 001°37'1 2.3
2017-Nov-16 09:30N 38°54' E 001°38'1 2.3
2017-Nov-16 09:00N 38°55' E 001°39'1 2.2
2017-Nov-16 08:30N 38°56' E 001°39'1 2.2
2017-Nov-16 08:00N 38°57' E 001°39'2 3.1
2017-Nov-16 07:30N 38°59' E 001°39'0 0.7
2017-Nov-16 07:00N 38°59' E 001°39'1 2.3
2017-Nov-16 06:30N 38°57' E 001°39'1 2.3
2017-Nov-16 06:00N 38°56' E 001°38'1 2.3
2017-Nov-16 05:30N 38°55' E 001°37'1 2.3
2017-Nov-16 04:59N 38°55' E 001°36'1 2.3
2017-Nov-16 04:29N 38°54' E 001°35'2 4.9
2017-Nov-16 03:59N 38°54' E 001°32'4 8.0
2017-Nov-16 03:27N 38°54' E 001°27'1 0.1
2017-Nov-15 17:01N 38°55' E 001°26'0 0.0
2017-Nov-15 16:59N 38°55' E 001°26'0 0.0
2017-Nov-15 16:25N 38°55' E 001°26'0 0.0
2017-Nov-15 16:00N 38°55' E 001°26'1 1.7
2017-Nov-15 15:13N 38°54' E 001°27'2 7.3
2017-Nov-15 15:00N 38°52' E 001°26'3 0.3
2017-Nov-15 03:56N 38°49' E 001°25'4 8.6
2017-Nov-15 03:30N 38°53' E 001°27'2 0.1
2017-Nov-14 13:27N 38°55' E 001°26'0 0.0
2017-Nov-14 12:56N 38°55' E 001°26'0 0.0
2017-Nov-14 12:26N 38°55' E 001°26'0 0.0
2017-Nov-14 12:00N 38°55' E 001°26'3 5.0
2017-Nov-14 11:24N 38°53' E 001°29'3 6.5
2017-Nov-14 11:00N 38°53' E 001°33'0 1.0
2017-Nov-14 10:29N 38°53' E 001°33'1 2.3
2017-Nov-14 10:00N 38°54' E 001°34'1 2.3
2017-Nov-14 09:30N 38°55' E 001°35'1 2.3
2017-Nov-14 09:00N 38°55' E 001°36'1 2.3
2017-Nov-14 08:29N 38°55' E 001°38'1 2.9
2017-Nov-14 08:00N 38°57' E 001°39'3 5.8
2017-Nov-14 07:30N 38°59' E 001°37'0 0.4
2017-Nov-14 07:00N 38°59' E 001°37'1 2.0
2017-Nov-14 06:30N 38°58' E 001°38'1 2.1
2017-Nov-14 06:00N 38°57' E 001°38'1 2.2
2017-Nov-14 05:30N 38°56' E 001°38'1 2.0
2017-Nov-14 05:00N 38°55' E 001°37'1 2.3
2017-Nov-14 04:29N 38°55' E 001°36'1 2.6
2017-Nov-14 04:00N 38°55' E 001°34'4 7.3
2017-Nov-14 03:30N 38°54' E 001°30'3 5.5
2017-Nov-14 02:59N 38°55' E 001°26'0 0.0
2017-Nov-12 16:19N 38°55' E 001°26'  
2017-Nov-10 03:38N 38°55' E 001°26'7 0.4
2017-Nov-09 08:59N 38°55' E 001°35'1 2.1
2017-Nov-09 08:30N 38°54' E 001°34'1 1.1
2017-Nov-09 07:52N 38°54' E 001°33'0 0.5
2017-Nov-09 07:29N 38°54' E 001°33'5 1.8
2017-Nov-09 04:51N 38°57' E 001°38'1 1.5
2017-Nov-09 04:26N 38°57' E 001°38'3 8.1
2017-Nov-09 04:00N 38°55' E 001°34'4 8.4
2017-Nov-09 03:29N 38°54' E 001°28'9 0.4
2017-Nov-08 07:31N 38°59' E 001°37'0 7.5
2017-Nov-08 07:30N 38°59' E 001°37'0 0.3
2017-Nov-08 07:00N 38°59' E 001°37'1 2.2
2017-Nov-08 06:30N 38°58' E 001°38'1 2.1
2017-Nov-08 06:00N 38°57' E 001°38'1 2.2
2017-Nov-08 05:30N 38°56' E 001°38'1 2.2
2017-Nov-08 04:52N 38°55' E 001°38'3 3.8
2017-Nov-08 03:59N 38°54' E 001°34'4 8.7
2017-Nov-08 03:30N 38°54' E 001°29'2 0.2
2017-Nov-07 15:15N 38°55' E 001°26'0 0.0
2017-Nov-07 14:59N 38°55' E 001°26'0 0.0
2017-Nov-07 14:31N 38°55' E 001°26'  
Track history (hours):
 
Tides and Currents Weather Stations Pressure Air Temp Water Temp Dewpoint Dewpoint Depression Visibility Wind Speed Wind Dir Waves Ship Positions

Ganasa

Last reported at 2017-Nov-17 14:29 UTC. Time now 2017-Nov-18 21:58 UTC.
Position N 38°55' E 001°26'.

Length 20 m.

Type: Fishing. MMSI: 224071880.

Date/timePositionNaut miles runAvg speedWind from/ knotsBaromVisibWave heightAir tempDewpointWater temp
2017-Nov-17 14:29N 38°55' E 001°26'0 0.0
2017-Nov-17 13:57N 38°55' E 001°26'0 0.0
2017-Nov-17 13:26N 38°55' E 001°26'2 4.2
2017-Nov-17 13:00N 38°53' E 001°28'7 1.9
2017-Nov-17 09:23N 38°54' E 001°37'1 2.2
2017-Nov-17 08:55N 38°54' E 001°38'1 2.1
2017-Nov-17 08:30N 38°55' E 001°38'1 2.4
2017-Nov-17 08:00N 38°56' E 001°39'1 2.2
2017-Nov-17 07:30N 38°57' E 001°39'2 4.6
2017-Nov-17 07:00N 38°59' E 001°38'1 1.2
2017-Nov-17 06:30N 38°60' E 001°38'1 2.2
2017-Nov-17 06:00N 38°59' E 001°38'1 2.3
2017-Nov-17 05:30N 38°58' E 001°38'1 2.3
2017-Nov-17 05:00N 38°57' E 001°38'1 2.3
2017-Nov-17 04:30N 38°56' E 001°38'3 6.0
2017-Nov-17 04:00N 38°54' E 001°34'5 8.6
2017-Nov-17 03:28N 38°54' E 001°28'1 0.0
2017-Nov-16 13:04N 38°54' E 001°27'1 8.0
2017-Nov-16 13:00N 38°53' E 001°28'5 8.3
2017-Nov-16 12:22N 38°50' E 001°33'1 1.2
2017-Nov-16 11:34N 38°50' E 001°35'1 2.3
2017-Nov-16 11:18N 38°51' E 001°35'1 2.3
2017-Nov-16 10:59N 38°51' E 001°35'1 2.4
2017-Nov-16 10:30N 38°52' E 001°36'1 2.4
2017-Nov-16 10:00N 38°53' E 001°37'1 2.3
2017-Nov-16 09:30N 38°54' E 001°38'1 2.3
2017-Nov-16 09:00N 38°55' E 001°39'1 2.2
2017-Nov-16 08:30N 38°56' E 001°39'1 2.2
2017-Nov-16 08:00N 38°57' E 001°39'2 3.1
2017-Nov-16 07:30N 38°59' E 001°39'0 0.7
2017-Nov-16 07:00N 38°59' E 001°39'1 2.3
2017-Nov-16 06:30N 38°57' E 001°39'1 2.3
2017-Nov-16 06:00N 38°56' E 001°38'1 2.3
2017-Nov-16 05:30N 38°55' E 001°37'1 2.3
2017-Nov-16 04:59N 38°55' E 001°36'1 2.3
2017-Nov-16 04:29N 38°54' E 001°35'2 4.9
2017-Nov-16 03:59N 38°54' E 001°32'4 8.0
2017-Nov-16 03:27N 38°54' E 001°27'1 0.1
2017-Nov-15 17:01N 38°55' E 001°26'0 0.0
2017-Nov-15 16:59N 38°55' E 001°26'0 0.0
2017-Nov-15 16:25N 38°55' E 001°26'0 0.0
2017-Nov-15 16:00N 38°55' E 001°26'1 1.7
2017-Nov-15 15:13N 38°54' E 001°27'2 7.3
2017-Nov-15 15:00N 38°52' E 001°26'3 0.3
2017-Nov-15 03:56N 38°49' E 001°25'4 8.6
2017-Nov-15 03:30N 38°53' E 001°27'2 0.1
2017-Nov-14 13:27N 38°55' E 001°26'0 0.0
2017-Nov-14 12:56N 38°55' E 001°26'0 0.0
2017-Nov-14 12:26N 38°55' E 001°26'0 0.0
2017-Nov-14 12:00N 38°55' E 001°26'3 5.0
2017-Nov-14 11:24N 38°53' E 001°29'3 6.5
2017-Nov-14 11:00N 38°53' E 001°33'0 1.0
2017-Nov-14 10:29N 38°53' E 001°33'1 2.3
2017-Nov-14 10:00N 38°54' E 001°34'1 2.3
2017-Nov-14 09:30N 38°55' E 001°35'1 2.3
2017-Nov-14 09:00N 38°55' E 001°36'1 2.3
2017-Nov-14 08:29N 38°55' E 001°38'1 2.9
2017-Nov-14 08:00N 38°57' E 001°39'3 5.8
2017-Nov-14 07:30N 38°59' E 001°37'0 0.4
2017-Nov-14 07:00N 38°59' E 001°37'1 2.0
2017-Nov-14 06:30N 38°58' E 001°38'1 2.1
2017-Nov-14 06:00N 38°57' E 001°38'1 2.2
2017-Nov-14 05:30N 38°56' E 001°38'1 2.0
2017-Nov-14 05:00N 38°55' E 001°37'1 2.3
2017-Nov-14 04:29N 38°55' E 001°36'1 2.6
2017-Nov-14 04:00N 38°55' E 001°34'4 7.3
2017-Nov-14 03:30N 38°54' E 001°30'3 5.5
2017-Nov-14 02:59N 38°55' E 001°26'0 0.0
2017-Nov-12 16:19N 38°55' E 001°26'  
2017-Nov-10 03:38N 38°55' E 001°26'7 0.4
2017-Nov-09 08:59N 38°55' E 001°35'1 2.1
2017-Nov-09 08:30N 38°54' E 001°34'1 1.1
2017-Nov-09 07:52N 38°54' E 001°33'0 0.5
2017-Nov-09 07:29N 38°54' E 001°33'5 1.8
2017-Nov-09 04:51N 38°57' E 001°38'1 1.5
2017-Nov-09 04:26N 38°57' E 001°38'3 8.1
2017-Nov-09 04:00N 38°55' E 001°34'4 8.4
2017-Nov-09 03:29N 38°54' E 001°28'9 0.4
2017-Nov-08 07:31N 38°59' E 001°37'0 7.5
2017-Nov-08 07:30N 38°59' E 001°37'0 0.3
2017-Nov-08 07:00N 38°59' E 001°37'1 2.2
2017-Nov-08 06:30N 38°58' E 001°38'1 2.1
2017-Nov-08 06:00N 38°57' E 001°38'1 2.2
2017-Nov-08 05:30N 38°56' E 001°38'1 2.2
2017-Nov-08 04:52N 38°55' E 001°38'3 3.8
2017-Nov-08 03:59N 38°54' E 001°34'4 8.7
2017-Nov-08 03:30N 38°54' E 001°29'2 0.2
2017-Nov-07 15:15N 38°55' E 001°26'0 0.0
2017-Nov-07 14:59N 38°55' E 001°26'0 0.0
2017-Nov-07 14:31N 38°55' E 001°26'  

Dump ship's entire track history